Aérodrome :







RETROUVEZ-NOUS SUR...

 
LOGIN :

S'inscrire | Disclaimer

   EN    FR    IT 

 









Légende :    VFR   VFR Marginal   IFR   IFR Intensif   IFR Très Intensif
Visi : 
Plafond : 
>= 8 km
>= 3000ft
5 à 8 km
1000 à 3000 ft
1500m à 5 km
500 à 1000 ft
800 à 1500m
200 à 500 ft
< 800m
< 200 ft
Symboles :   Orages  Brouillard  Fortes neiges  Fortes précipitations  Vent > 20 kt






- Altitude de l'aérodrome : 232 ft
- Code IATA : YQM


CYQM - Greater Moncton International

DERNIER METAR :
  • 140600Z 25010G16KT 15SM SKC M09/M12 A3027 RMK SLP258

METARs EXPIRÉS :
  • 140500Z 25011KT 15SM SKC M08/M11 A3023 RMK SLP245
  • 140400Z 25011KT 15SM SKC M08/M11 A3020 RMK SLP233

TAF TAF CYQM
Valide du 14 à 06h jusqu'au 15 à 06h UTC


140538Z 1406/1506 26008KT P6SM SKC
FM141200 24008KT P6SM BKN160
FM142100 17008KT P6SM -SHSN BKN030 OVC100
FM142300 15008KT 4SM -SN OVC030
FM150200 17010KT 11/2SM -SN OVC015 RMK NXT FCST BY 141200Z



MET'MAP, la Météo Aéronautique d'un coup d'oeil ! - Copyright ORBIFLY Décembre 2007 - Disclaimer

ORBIFLY MET'MAP TEAM :

Programmation & Développement : Alexandra Zaïnal
Conception & Développement : Baudouin d'Aumeries
Co-Programmation & Développement : Marc-Olivier Méhu
Soutien technique & logistique : Manuel Goepfert

Contact : metmap@orbifly.com




SOURCES & CREDITS :

   NOAA